Ellsworth, Michigan
Current Conditions -  °F | °C
As of 8:54 AM on Wednesday 28 Jan 2015 (Local Time) from KCVX Reporting Station
Clear Clear  
Wind Chill: -4°   Ceiling: Unl
Heat Index:   Visibility: 10mi
Dew Point:   Wind: 6mph
Humidity: 86%   Direction: 120°ESE
Pressure: 30.29"   Gusts: NA
Location:  45.17°N, 85.25°W
Report Text: KCVX 281354Z AUTO 12005KT 10SM CLR M14/M16 A3029 RMK AO2 T11441163
Loading
Personal Weather Stations






























Interactive Weather Map New forecast layout! Learn more

10-Day Weather Forecast

Advertisements
Track Severe Weather on mobile